»·PEaware :: SKY2112 KLVM-6S0

SKY2112 :: KLVM-6S0

FLIGHT INFORMATION

Flight Status: Arrived
Operator:
Sky High Charters
More flights by this operator :: More flights under this callsign
Pilot: Jordan O. (2051)
Aircraft: BEECH AIRCRAFT BARON
(BE58)
More flights by this aircraft type
Origin: KLVM Mission
United States
Destination: 6S0 Big Timber
United States
More flights between these airports :: More routes between these airports
Route: +LVM2 LVM V2 REEPO
File this flight plan on PilotEdge
Remarks: Scenario 7 Pt. 2
Altitude:
(Current/Filed)
9,000ft
Speed:
(Current/Filed)
170kts
Departed: 13-Nov-20 10:24 PM
Arrived: 13-Nov-20 10:57 PM
Distance/Time
Traveled:
20nm/0:33
Distance/Time
To Go:
Arrived

Flight Plot

Page will automatically refresh every two minutes.

Flight plan parsing failed; only flown route is shown


Map Options




Map Legend


Flown Route
Filed Route
Departure Airport
Arrival Airport
Navaid (VOR, NDB)
Fix

Horizontal Profiles

Position Reports

Time Latitude Longitude Heading Altitude Ground
Speed
13-Nov-20 22:01 45.696911 -110.453471 148 4639ft 0kts
13-Nov-20 22:02 45.696911 -110.453471 148 4639ft 0kts
13-Nov-20 22:03 45.696911 -110.453471 148 4639ft 0kts
13-Nov-20 22:04 45.696911 -110.453471 148 4639ft 0kts
13-Nov-20 22:05 45.696911 -110.453471 148 4639ft 0kts
13-Nov-20 22:06 45.696911 -110.453471 148 4639ft 0kts
13-Nov-20 22:07 45.696911 -110.453471 148 4639ft 0kts
13-Nov-20 22:08 45.696911 -110.453471 148 4639ft 0kts
13-Nov-20 22:09 45.696911 -110.453471 148 4639ft 0kts
13-Nov-20 22:10 45.696911 -110.453471 148 4639ft 0kts
13-Nov-20 22:11 45.696911 -110.453471 148 4639ft 0kts
13-Nov-20 22:12 45.696911 -110.453471 148 4639ft 0kts
13-Nov-20 22:13 45.696736 -110.452891 80 4642ft 4kts
13-Nov-20 22:14 45.696168 -110.452365 130 4645ft 8kts
13-Nov-20 22:15 45.695817 -110.452038 146 4647ft 0kts
13-Nov-20 22:16 45.695774 -110.451997 146 4647ft 0kts
13-Nov-20 22:17 45.695774 -110.451997 146 4647ft 0kts
13-Nov-20 22:18 45.695240 -110.451459 113 4649ft 9kts
13-Nov-20 22:19 45.698351 -110.444963 55 4650ft 24kts
13-Nov-20 22:20 45.702473 -110.437889 11 4633ft 14kts
13-Nov-20 22:21 45.702259 -110.437110 234 4630ft 0kts
13-Nov-20 22:22 45.702196 -110.437242 235 4630ft 16kts
13-Nov-20 22:23 45.690057 -110.464645 238 5277ft 95kts
13-Nov-20 22:24 45.695665 -110.507235 247 6294ft 103kts
13-Nov-20 22:25 45.692782 -110.548243 287 7255ft 122kts
13-Nov-20 22:26 45.725542 -110.530047 99 7949ft 168kts
13-Nov-20 22:27 45.711354 -110.471571 129 8613ft 157kts
13-Nov-20 22:28 45.705818 -110.407150 83 8979ft 200kts
13-Nov-20 22:29 45.710460 -110.324573 92 8975ft 215kts
13-Nov-20 22:30 45.715540 -110.238394 91 8974ft 219kts
13-Nov-20 22:31 45.721028 -110.151247 91 9000ft 219kts
13-Nov-20 22:32 45.726460 -110.063996 91 9002ft 220kts
13-Nov-20 22:33 45.731860 -109.976473 91 8994ft 215kts
13-Nov-20 22:34 45.736864 -109.896095 92 8989ft 193kts
13-Nov-20 22:35 45.741435 -109.819791 92 8993ft 192kts
13-Nov-20 22:36 45.745984 -109.743424 92 8994ft 192kts
13-Nov-20 22:37 45.745961 -109.667931 110 8993ft 184kts
13-Nov-20 22:38 45.736329 -109.595403 110 8989ft 188kts
13-Nov-20 22:39 45.723247 -109.530311 120 8985ft 189kts
13-Nov-20 22:40 45.702989 -109.460440 120 8980ft 194kts
13-Nov-20 22:41 45.684213 -109.387624 78 8980ft 202kts
13-Nov-20 22:43 45.717202 -109.357521 291 8888ft 134kts
13-Nov-20 22:44 45.730693 -109.409382 284 8429ft 147kts
13-Nov-20 22:45 45.744605 -109.465940 283 7980ft 150kts
13-Nov-20 22:46 45.757890 -109.520137 283 7982ft 142kts
13-Nov-20 22:47 45.782817 -109.571220 296 7565ft 166kts
13-Nov-20 22:48 45.811434 -109.625755 296 7058ft 175kts
13-Nov-20 22:49 45.839134 -109.678127 291 7072ft 141kts
13-Nov-20 22:50 45.855637 -109.720222 255 7010ft 104kts
13-Nov-20 22:51 45.849254 -109.763828 244 6558ft 116kts
13-Nov-20 22:52 45.840890 -109.806618 243 6396ft 104kts
13-Nov-20 22:53 45.833383 -109.844511 243 6039ft 98kts
13-Nov-20 22:54 45.825715 -109.883228 241 5485ft 104kts
13-Nov-20 22:55 45.817930 -109.922686 241 5033ft 96kts
13-Nov-20 22:56 45.810965 -109.957808 241 4647ft 91kts
13-Nov-20 22:57 45.805908 -109.983249 252 4495ft 24kts
13-Nov-20 22:57 45.805576 -109.986602 303 4495ft 11kts

Navigation Log

Ident Type
Flight plan parsing failed, navigation log unavailable